sensor_id;sensor_type;location;lat;lon;timestamp;P1;durP1;ratioP1;P2;durP2;ratioP2
31910;SDS011;18457;52.432;16.914;2022-09-09T00:00:27;26.10;;;21.10;;
31910;SDS011;18457;52.432;16.914;2022-09-09T00:03:24;27.00;;;21.00;;
31910;SDS011;18457;52.432;16.914;2022-09-09T00:06:03;29.10;;;21.60;;
31910;SDS011;18457;52.432;16.914;2022-09-09T00:08:45;31.10;;;20.80;;
31910;SDS011;18457;52.432;16.914;2022-09-09T00:11:26;30.00;;;21.50;;
31910;SDS011;18457;52.432;16.914;2022-09-09T00:14:06;30.20;;;21.70;;
31910;SDS011;18457;52.432;16.914;2022-09-09T00:16:50;29.60;;;21.30;;
31910;SDS011;18457;52.432;16.914;2022-09-09T00:19:27;27.00;;;20.40;;
31910;SDS011;18457;52.432;16.914;2022-09-09T00:22:12;28.30;;;21.30;;
31910;SDS011;18457;52.432;16.914;2022-09-09T00:24:46;30.50;;;21.10;;
31910;SDS011;18457;52.432;16.914;2022-09-09T00:27:23;30.80;;;22.20;;
31910;SDS011;18457;52.432;16.914;2022-09-09T00:30:12;32.70;;;23.20;;
31910;SDS011;18457;52.432;16.914;2022-09-09T00:32:48;27.00;;;20.40;;
31910;SDS011;18457;52.432;16.914;2022-09-09T00:35:27;28.90;;;21.00;;
31910;SDS011;18457;52.432;16.914;2022-09-09T00:38:05;25.40;;;20.70;;
31910;SDS011;18457;52.432;16.914;2022-09-09T00:40:47;28.40;;;21.80;;
31910;SDS011;18457;52.432;16.914;2022-09-09T00:43:29;27.60;;;20.50;;
31910;SDS011;18457;52.432;16.914;2022-09-09T00:46:18;29.00;;;21.60;;
31910;SDS011;18457;52.432;16.914;2022-09-09T00:49:03;25.10;;;19.70;;
31910;SDS011;18457;52.432;16.914;2022-09-09T00:51:46;27.30;;;21.00;;
31910;SDS011;18457;52.432;16.914;2022-09-09T00:54:28;29.80;;;21.50;;
31910;SDS011;18457;52.432;16.914;2022-09-09T00:57:13;27.60;;;19.80;;
31910;SDS011;18457;52.432;16.914;2022-09-09T00:59:56;26.10;;;18.20;;
31910;SDS011;18457;52.432;16.914;2022-09-09T01:02:35;23.90;;;19.00;;
31910;SDS011;18457;52.432;16.914;2022-09-09T01:05:15;22.20;;;17.30;;
31910;SDS011;18457;52.432;16.914;2022-09-09T01:07:57;23.10;;;17.50;;
31910;SDS011;18457;52.432;16.914;2022-09-09T01:10:34;19.60;;;15.50;;
31910;SDS011;18457;52.432;16.914;2022-09-09T01:13:16;22.60;;;17.00;;
31910;SDS011;18457;52.432;16.914;2022-09-09T01:15:54;19.40;;;15.70;;
31910;SDS011;18457;52.432;16.914;2022-09-09T01:18:32;21.30;;;16.80;;
31910;SDS011;18457;52.432;16.914;2022-09-09T01:21:09;19.90;;;15.90;;
31910;SDS011;18457;52.432;16.914;2022-09-09T01:23:58;20.90;;;15.80;;
31910;SDS011;18457;52.432;16.914;2022-09-09T01:27:03;19.50;;;15.30;;
31910;SDS011;18457;52.432;16.914;2022-09-09T01:29:37;20.90;;;15.80;;
31910;SDS011;18457;52.432;16.914;2022-09-09T01:35:12;21.70;;;15.50;;
31910;SDS011;18457;52.432;16.914;2022-09-09T01:37:53;17.40;;;14.70;;
31910;SDS011;18457;52.432;16.914;2022-09-09T01:40:25;21.60;;;15.10;;
31910;SDS011;18457;52.432;16.914;2022-09-09T01:42:57;19.00;;;15.30;;
31910;SDS011;18457;52.432;16.914;2022-09-09T01:45:29;19.30;;;15.60;;
31910;SDS011;18457;52.432;16.914;2022-09-09T01:48:02;22.50;;;15.10;;
31910;SDS011;18457;52.432;16.914;2022-09-09T01:50:52;18.10;;;14.50;;
31910;SDS011;18457;52.432;16.914;2022-09-09T01:53:24;16.20;;;14.00;;
31910;SDS011;18457;52.432;16.914;2022-09-09T01:56:02;18.70;;;14.70;;
31910;SDS011;18457;52.432;16.914;2022-09-09T01:58:46;19.60;;;14.30;;
31910;SDS011;18457;52.432;16.914;2022-09-09T02:01:34;20.60;;;14.20;;
31910;SDS011;18457;52.432;16.914;2022-09-09T02:04:18;19.20;;;15.00;;
31910;SDS011;18457;52.432;16.914;2022-09-09T02:07:02;15.60;;;13.60;;
31910;SDS011;18457;52.432;16.914;2022-09-09T02:09:38;15.40;;;13.30;;
31910;SDS011;18457;52.432;16.914;2022-09-09T02:12:14;18.00;;;13.40;;
31910;SDS011;18457;52.432;16.914;2022-09-09T02:14:56;19.10;;;14.70;;
31910;SDS011;18457;52.432;16.914;2022-09-09T02:17:39;17.70;;;14.00;;
31910;SDS011;18457;52.432;16.914;2022-09-09T02:20:15;18.80;;;14.50;;
31910;SDS011;18457;52.432;16.914;2022-09-09T02:22:55;17.80;;;14.30;;
31910;SDS011;18457;52.432;16.914;2022-09-09T02:25:28;19.50;;;14.00;;
31910;SDS011;18457;52.432;16.914;2022-09-09T02:28:07;17.20;;;14.40;;
31910;SDS011;18457;52.432;16.914;2022-09-09T02:30:41;18.10;;;14.50;;
31910;SDS011;18457;52.432;16.914;2022-09-09T02:33:16;20.60;;;15.50;;
31910;SDS011;18457;52.432;16.914;2022-09-09T02:35:51;19.20;;;15.00;;
31910;SDS011;18457;52.432;16.914;2022-09-09T02:38:32;17.70;;;14.40;;
31910;SDS011;18457;52.432;16.914;2022-09-09T02:41:10;21.30;;;15.30;;
31910;SDS011;18457;52.432;16.914;2022-09-09T02:43:42;16.10;;;14.10;;
31910;SDS011;18457;52.432;16.914;2022-09-09T02:46:19;17.60;;;13.80;;
31910;SDS011;18457;52.432;16.914;2022-09-09T02:49:09;15.80;;;13.90;;
31910;SDS011;18457;52.432;16.914;2022-09-09T02:51:47;18.70;;;13.90;;
31910;SDS011;18457;52.432;16.914;2022-09-09T02:54:26;20.00;;;14.30;;
31910;SDS011;18457;52.432;16.914;2022-09-09T02:57:03;22.60;;;14.60;;
31910;SDS011;18457;52.432;16.914;2022-09-09T02:59:40;17.80;;;14.50;;
31910;SDS011;18457;52.432;16.914;2022-09-09T03:02:13;20.40;;;15.40;;
31910;SDS011;18457;52.432;16.914;2022-09-09T03:04:47;19.90;;;14.30;;
31910;SDS011;18457;52.432;16.914;2022-09-09T03:07:20;17.20;;;13.50;;
31910;SDS011;18457;52.432;16.914;2022-09-09T03:12:25;17.90;;;14.40;;
31910;SDS011;18457;52.432;16.914;2022-09-09T03:14:57;19.50;;;15.00;;
31910;SDS011;18457;52.432;16.914;2022-09-09T03:17:29;26.10;;;15.80;;
31910;SDS011;18457;52.432;16.914;2022-09-09T03:20:01;24.60;;;16.30;;
31910;SDS011;18457;52.432;16.914;2022-09-09T03:22:33;20.10;;;14.50;;
31910;SDS011;18457;52.432;16.914;2022-09-09T03:25:05;19.60;;;15.20;;
31910;SDS011;18457;52.432;16.914;2022-09-09T03:27:38;17.70;;;13.70;;
31910;SDS011;18457;52.432;16.914;2022-09-09T03:30:10;17.40;;;14.30;;
31910;SDS011;18457;52.432;16.914;2022-09-09T03:32:43;16.10;;;13.60;;
31910;SDS011;18457;52.432;16.914;2022-09-09T03:35:17;21.10;;;15.10;;
31910;SDS011;18457;52.432;16.914;2022-09-09T03:37:49;16.60;;;10.50;;
31910;SDS011;18457;52.432;16.914;2022-09-09T03:40:20;17.90;;;14.80;;
31910;SDS011;18457;52.432;16.914;2022-09-09T03:42:52;19.80;;;15.20;;
31910;SDS011;18457;52.432;16.914;2022-09-09T03:45:24;25.10;;;14.50;;
31910;SDS011;18457;52.432;16.914;2022-09-09T03:47:55;18.70;;;15.70;;
31910;SDS011;18457;52.432;16.914;2022-09-09T03:50:27;19.60;;;15.20;;
31910;SDS011;18457;52.432;16.914;2022-09-09T03:52:59;27.30;;;16.50;;
31910;SDS011;18457;52.432;16.914;2022-09-09T03:55:30;21.30;;;15.40;;
31910;SDS011;18457;52.432;16.914;2022-09-09T03:58:03;20.20;;;15.20;;
31910;SDS011;18457;52.432;16.914;2022-09-09T04:00:34;23.60;;;16.20;;
31910;SDS011;18457;52.432;16.914;2022-09-09T04:03:12;21.10;;;16.20;;
31910;SDS011;18457;52.432;16.914;2022-09-09T04:05:44;20.90;;;15.80;;
31910;SDS011;18457;52.432;16.914;2022-09-09T04:08:18;24.80;;;17.90;;
31910;SDS011;18457;52.432;16.914;2022-09-09T04:10:51;24.30;;;17.10;;
31910;SDS011;18457;52.432;16.914;2022-09-09T04:13:27;23.70;;;16.30;;
31910;SDS011;18457;52.432;16.914;2022-09-09T04:16:00;18.90;;;15.70;;
31910;SDS011;18457;52.432;16.914;2022-09-09T04:18:34;18.60;;;15.50;;
31910;SDS011;18457;52.432;16.914;2022-09-09T04:21:06;24.60;;;16.40;;
31910;SDS011;18457;52.432;16.914;2022-09-09T04:23:39;23.70;;;16.30;;
31910;SDS011;18457;52.432;16.914;2022-09-09T04:26:12;19.40;;;16.50;;
31910;SDS011;18457;52.432;16.914;2022-09-09T04:28:45;18.40;;;14.30;;
31910;SDS011;18457;52.432;16.914;2022-09-09T04:31:19;25.60;;;17.70;;
31910;SDS011;18457;52.432;16.914;2022-09-09T04:33:55;21.70;;;16.30;;
31910;SDS011;18457;52.432;16.914;2022-09-09T04:36:27;26.40;;;18.20;;
31910;SDS011;18457;52.432;16.914;2022-09-09T04:39:02;22.30;;;16.70;;
31910;SDS011;18457;52.432;16.914;2022-09-09T04:41:34;27.40;;;19.60;;
31910;SDS011;18457;52.432;16.914;2022-09-09T04:46:37;25.70;;;18.00;;
31910;SDS011;18457;52.432;16.914;2022-09-09T04:49:10;24.10;;;18.10;;
31910;SDS011;18457;52.432;16.914;2022-09-09T04:51:44;33.50;;;22.20;;
31910;SDS011;18457;52.432;16.914;2022-09-09T04:54:16;35.90;;;22.00;;
31910;SDS011;18457;52.432;16.914;2022-09-09T04:56:49;34.10;;;21.50;;
31910;SDS011;18457;52.432;16.914;2022-09-09T04:59:21;30.40;;;21.70;;
31910;SDS011;18457;52.432;16.914;2022-09-09T05:01:55;31.10;;;21.60;;
31910;SDS011;18457;52.432;16.914;2022-09-09T05:06:58;37.00;;;22.40;;
31910;SDS011;18457;52.432;16.914;2022-09-09T05:09:30;33.00;;;23.00;;
31910;SDS011;18457;52.432;16.914;2022-09-09T05:12:02;32.00;;;22.90;;
31910;SDS011;18457;52.432;16.914;2022-09-09T05:14:37;35.20;;;22.50;;
31910;SDS011;18457;52.432;16.914;2022-09-09T05:17:09;36.10;;;24.00;;
31910;SDS011;18457;52.432;16.914;2022-09-09T05:19:42;38.00;;;22.30;;
31910;SDS011;18457;52.432;16.914;2022-09-09T05:22:14;37.40;;;22.80;;
31910;SDS011;18457;52.432;16.914;2022-09-09T05:24:52;40.20;;;24.20;;
31910;SDS011;18457;52.432;16.914;2022-09-09T05:27:23;44.60;;;25.00;;
31910;SDS011;18457;52.432;16.914;2022-09-09T05:29:55;43.80;;;23.80;;
31910;SDS011;18457;52.432;16.914;2022-09-09T05:32:27;40.70;;;23.80;;
31910;SDS011;18457;52.432;16.914;2022-09-09T05:35:03;40.40;;;25.60;;
31910;SDS011;18457;52.432;16.914;2022-09-09T05:37:36;40.40;;;24.60;;
31910;SDS011;18457;52.432;16.914;2022-09-09T05:40:09;40.30;;;25.20;;
31910;SDS011;18457;52.432;16.914;2022-09-09T05:42:41;40.00;;;23.90;;
31910;SDS011;18457;52.432;16.914;2022-09-09T05:45:13;40.00;;;24.30;;
31910;SDS011;18457;52.432;16.914;2022-09-09T05:47:50;33.40;;;22.70;;
31910;SDS011;18457;52.432;16.914;2022-09-09T05:50:24;34.00;;;23.40;;
31910;SDS011;18457;52.432;16.914;2022-09-09T05:52:59;33.70;;;21.60;;
31910;SDS011;18457;52.432;16.914;2022-09-09T05:55:32;39.00;;;24.00;;
31910;SDS011;18457;52.432;16.914;2022-09-09T05:58:04;36.50;;;22.30;;
31910;SDS011;18457;52.432;16.914;2022-09-09T06:00:36;36.40;;;21.10;;
31910;SDS011;18457;52.432;16.914;2022-09-09T06:03:08;37.90;;;22.20;;
31910;SDS011;18457;52.432;16.914;2022-09-09T06:05:41;41.60;;;23.30;;
31910;SDS011;18457;52.432;16.914;2022-09-09T06:08:14;38.00;;;21.80;;
31910;SDS011;18457;52.432;16.914;2022-09-09T06:10:46;41.00;;;23.20;;
31910;SDS011;18457;52.432;16.914;2022-09-09T06:13:18;45.20;;;23.00;;
31910;SDS011;18457;52.432;16.914;2022-09-09T06:15:52;34.60;;;22.00;;
31910;SDS011;18457;52.432;16.914;2022-09-09T06:18:25;37.10;;;22.50;;
31910;SDS011;18457;52.432;16.914;2022-09-09T06:20:58;33.80;;;21.20;;
31910;SDS011;18457;52.432;16.914;2022-09-09T06:23:33;37.70;;;23.20;;
31910;SDS011;18457;52.432;16.914;2022-09-09T06:26:06;41.40;;;25.40;;
31910;SDS011;18457;52.432;16.914;2022-09-09T06:28:40;37.40;;;23.90;;
31910;SDS011;18457;52.432;16.914;2022-09-09T06:31:13;39.90;;;24.20;;
31910;SDS011;18457;52.432;16.914;2022-09-09T06:33:47;40.00;;;23.90;;
31910;SDS011;18457;52.432;16.914;2022-09-09T06:36:20;41.10;;;27.40;;
31910;SDS011;18457;52.432;16.914;2022-09-09T06:38:53;40.30;;;26.70;;
31910;SDS011;18457;52.432;16.914;2022-09-09T06:41:26;45.30;;;29.60;;
31910;SDS011;18457;52.432;16.914;2022-09-09T06:43:59;41.10;;;26.80;;
31910;SDS011;18457;52.432;16.914;2022-09-09T06:46:36;33.50;;;26.20;;
31910;SDS011;18457;52.432;16.914;2022-09-09T06:49:09;35.10;;;26.70;;
31910;SDS011;18457;52.432;16.914;2022-09-09T06:51:40;35.60;;;26.80;;
31910;SDS011;18457;52.432;16.914;2022-09-09T06:54:14;39.30;;;28.60;;
31910;SDS011;18457;52.432;16.914;2022-09-09T06:56:45;37.60;;;28.40;;
31910;SDS011;18457;52.432;16.914;2022-09-09T06:59:23;41.90;;;28.10;;
31910;SDS011;18457;52.432;16.914;2022-09-09T07:01:55;39.90;;;29.80;;
31910;SDS011;18457;52.432;16.914;2022-09-09T07:04:28;42.90;;;29.40;;
31910;SDS011;18457;52.432;16.914;2022-09-09T07:07:00;41.60;;;30.60;;
31910;SDS011;18457;52.432;16.914;2022-09-09T07:09:32;42.00;;;29.90;;
31910;SDS011;18457;52.432;16.914;2022-09-09T07:12:05;39.60;;;29.10;;
31910;SDS011;18457;52.432;16.914;2022-09-09T07:14:39;38.40;;;26.90;;
31910;SDS011;18457;52.432;16.914;2022-09-09T07:17:11;39.60;;;30.00;;
31910;SDS011;18457;52.432;16.914;2022-09-09T07:19:46;38.80;;;26.70;;
31910;SDS011;18457;52.432;16.914;2022-09-09T07:22:18;36.90;;;26.80;;
31910;SDS011;18457;52.432;16.914;2022-09-09T07:24:50;34.90;;;25.30;;
31910;SDS011;18457;52.432;16.914;2022-09-09T07:27:21;33.20;;;26.00;;
31910;SDS011;18457;52.432;16.914;2022-09-09T07:29:53;31.60;;;23.70;;
31910;SDS011;18457;52.432;16.914;2022-09-09T07:32:26;30.70;;;23.50;;
31910;SDS011;18457;52.432;16.914;2022-09-09T07:34:59;34.70;;;24.00;;
31910;SDS011;18457;52.432;16.914;2022-09-09T07:37:30;32.70;;;21.60;;
31910;SDS011;18457;52.432;16.914;2022-09-09T07:40:03;30.60;;;22.70;;
31910;SDS011;18457;52.432;16.914;2022-09-09T07:42:36;37.20;;;24.20;;
31910;SDS011;18457;52.432;16.914;2022-09-09T07:45:07;30.30;;;21.20;;
31910;SDS011;18457;52.432;16.914;2022-09-09T07:47:39;32.40;;;21.70;;
31910;SDS011;18457;52.432;16.914;2022-09-09T07:50:12;32.10;;;20.50;;
31910;SDS011;18457;52.432;16.914;2022-09-09T07:52:45;28.80;;;19.60;;
31910;SDS011;18457;52.432;16.914;2022-09-09T07:55:16;27.80;;;18.30;;
31910;SDS011;18457;52.432;16.914;2022-09-09T07:57:48;29.40;;;19.10;;
31910;SDS011;18457;52.432;16.914;2022-09-09T08:00:20;29.90;;;19.30;;
31910;SDS011;18457;52.432;16.914;2022-09-09T08:02:53;27.20;;;17.90;;
31910;SDS011;18457;52.432;16.914;2022-09-09T08:05:25;24.80;;;17.50;;
31910;SDS011;18457;52.432;16.914;2022-09-09T08:07:58;27.40;;;18.60;;
31910;SDS011;18457;52.432;16.914;2022-09-09T08:10:32;29.00;;;18.40;;
31910;SDS011;18457;52.432;16.914;2022-09-09T08:13:04;28.80;;;18.70;;
31910;SDS011;18457;52.432;16.914;2022-09-09T08:15:47;22.00;;;16.30;;
31910;SDS011;18457;52.432;16.914;2022-09-09T08:18:20;30.40;;;17.10;;
31910;SDS011;18457;52.432;16.914;2022-09-09T08:20:52;29.90;;;17.50;;
31910;SDS011;18457;52.432;16.914;2022-09-09T08:23:24;27.60;;;17.30;;
31910;SDS011;18457;52.432;16.914;2022-09-09T08:26:02;26.20;;;17.30;;
31910;SDS011;18457;52.432;16.914;2022-09-09T08:28:35;27.30;;;18.80;;
31910;SDS011;18457;52.432;16.914;2022-09-09T08:31:10;25.00;;;17.10;;
31910;SDS011;18457;52.432;16.914;2022-09-09T08:33:44;22.60;;;15.90;;
31910;SDS011;18457;52.432;16.914;2022-09-09T08:36:16;26.80;;;18.00;;
31910;SDS011;18457;52.432;16.914;2022-09-09T08:38:50;21.10;;;15.80;;
31910;SDS011;18457;52.432;16.914;2022-09-09T08:41:34;21.00;;;15.50;;
31910;SDS011;18457;52.432;16.914;2022-09-09T08:44:17;21.40;;;14.00;;
31910;SDS011;18457;52.432;16.914;2022-09-09T08:46:57;21.60;;;14.10;;
31910;SDS011;18457;52.432;16.914;2022-09-09T08:49:48;15.90;;;12.10;;
31910;SDS011;18457;52.432;16.914;2022-09-09T08:52:36;16.90;;;13.10;;
31910;SDS011;18457;52.432;16.914;2022-09-09T08:55:18;36.10;;;14.00;;
31910;SDS011;18457;52.432;16.914;2022-09-09T09:00:32;17.30;;;11.20;;
31910;SDS011;18457;52.432;16.914;2022-09-09T09:03:13;15.20;;;11.40;;
31910;SDS011;18457;52.432;16.914;2022-09-09T09:05:54;12.50;;;10.90;;
31910;SDS011;18457;52.432;16.914;2022-09-09T09:08:38;17.50;;;10.60;;
31910;SDS011;18457;52.432;16.914;2022-09-09T09:11:16;11.20;;;8.70;;
31910;SDS011;18457;52.432;16.914;2022-09-09T09:13:50;10.90;;;9.80;;
31910;SDS011;18457;52.432;16.914;2022-09-09T09:16:29;12.90;;;9.60;;
31910;SDS011;18457;52.432;16.914;2022-09-09T09:19:07;11.30;;;8.80;;
31910;SDS011;18457;52.432;16.914;2022-09-09T09:21:43;9.00;;;7.70;;
31910;SDS011;18457;52.432;16.914;2022-09-09T09:24:23;11.30;;;9.60;;
31910;SDS011;18457;52.432;16.914;2022-09-09T09:27:04;11.40;;;8.70;;
31910;SDS011;18457;52.432;16.914;2022-09-09T09:29:43;9.90;;;8.00;;
31910;SDS011;18457;52.432;16.914;2022-09-09T09:32:40;13.90;;;8.60;;
31910;SDS011;18457;52.432;16.914;2022-09-09T09:35:23;16.00;;;7.80;;
31910;SDS011;18457;52.432;16.914;2022-09-09T09:37:55;10.80;;;7.90;;
31910;SDS011;18457;52.432;16.914;2022-09-09T09:40:51;10.00;;;8.90;;
31910;SDS011;18457;52.432;16.914;2022-09-09T09:43:28;13.80;;;8.90;;
31910;SDS011;18457;52.432;16.914;2022-09-09T09:46:04;8.40;;;7.20;;
31910;SDS011;18457;52.432;16.914;2022-09-09T09:48:57;8.50;;;7.00;;
31910;SDS011;18457;52.432;16.914;2022-09-09T09:51:30;11.30;;;7.80;;
31910;SDS011;18457;52.432;16.914;2022-09-09T09:54:17;7.60;;;6.90;;
31910;SDS011;18457;52.432;16.914;2022-09-09T09:56:56;7.70;;;7.00;;
31910;SDS011;18457;52.432;16.914;2022-09-09T09:59:38;7.80;;;6.40;;
31910;SDS011;18457;52.432;16.914;2022-09-09T10:02:19;7.70;;;6.70;;
31910;SDS011;18457;52.432;16.914;2022-09-09T10:05:06;8.00;;;6.30;;
31910;SDS011;18457;52.432;16.914;2022-09-09T10:07:44;8.00;;;5.90;;
31910;SDS011;18457;52.432;16.914;2022-09-09T10:10:19;6.10;;;5.40;;
31910;SDS011;18457;52.432;16.914;2022-09-09T10:12:59;6.90;;;4.90;;
31910;SDS011;18457;52.432;16.914;2022-09-09T10:15:41;7.10;;;5.50;;
31910;SDS011;18457;52.432;16.914;2022-09-09T10:18:25;5.60;;;4.90;;
31910;SDS011;18457;52.432;16.914;2022-09-09T10:21:11;6.40;;;5.10;;
31910;SDS011;18457;52.432;16.914;2022-09-09T10:24:07;6.50;;;4.90;;
31910;SDS011;18457;52.432;16.914;2022-09-09T10:26:50;8.30;;;5.20;;
31910;SDS011;18457;52.432;16.914;2022-09-09T10:29:32;6.90;;;4.90;;
31910;SDS011;18457;52.432;16.914;2022-09-09T10:32:24;7.10;;;5.00;;
31910;SDS011;18457;52.432;16.914;2022-09-09T10:35:20;9.50;;;5.50;;
31910;SDS011;18457;52.432;16.914;2022-09-09T10:38:04;13.40;;;5.80;;
31910;SDS011;18457;52.432;16.914;2022-09-09T10:40:43;6.70;;;5.80;;
31910;SDS011;18457;52.432;16.914;2022-09-09T10:43:33;6.40;;;5.30;;
31910;SDS011;18457;52.432;16.914;2022-09-09T10:46:17;7.90;;;5.50;;
31910;SDS011;18457;52.432;16.914;2022-09-09T10:49:01;6.90;;;5.20;;
31910;SDS011;18457;52.432;16.914;2022-09-09T10:51:42;9.00;;;6.70;;
31910;SDS011;18457;52.432;16.914;2022-09-09T10:54:28;9.90;;;6.40;;
31910;SDS011;18457;52.432;16.914;2022-09-09T10:57:10;7.20;;;6.50;;
31910;SDS011;18457;52.432;16.914;2022-09-09T10:59:47;6.90;;;5.70;;
31910;SDS011;18457;52.432;16.914;2022-09-09T11:02:26;9.50;;;6.30;;
31910;SDS011;18457;52.432;16.914;2022-09-09T11:05:00;8.40;;;6.90;;
31910;SDS011;18457;52.432;16.914;2022-09-09T11:07:36;6.70;;;5.50;;
31910;SDS011;18457;52.432;16.914;2022-09-09T11:10:17;6.70;;;5.20;;
31910;SDS011;18457;52.432;16.914;2022-09-09T11:12:56;7.30;;;5.50;;
31910;SDS011;18457;52.432;16.914;2022-09-09T11:15:31;6.80;;;4.90;;
31910;SDS011;18457;52.432;16.914;2022-09-09T11:18:11;7.20;;;5.20;;
31910;SDS011;18457;52.432;16.914;2022-09-09T11:20:47;8.40;;;5.80;;
31910;SDS011;18457;52.432;16.914;2022-09-09T11:23:25;5.70;;;4.80;;
31910;SDS011;18457;52.432;16.914;2022-09-09T11:26:10;6.50;;;3.20;;
31910;SDS011;18457;52.432;16.914;2022-09-09T11:28:51;5.50;;;3.30;;
31910;SDS011;18457;52.432;16.914;2022-09-09T11:31:38;7.10;;;3.60;;
31910;SDS011;18457;52.432;16.914;2022-09-09T11:34:26;7.20;;;3.80;;
31910;SDS011;18457;52.432;16.914;2022-09-09T11:40:14;5.00;;;4.20;;
31910;SDS011;18457;52.432;16.914;2022-09-09T11:42:49;4.90;;;4.00;;
31910;SDS011;18457;52.432;16.914;2022-09-09T11:45:34;4.40;;;3.50;;
31910;SDS011;18457;52.432;16.914;2022-09-09T11:48:21;3.80;;;2.70;;
31910;SDS011;18457;52.432;16.914;2022-09-09T11:51:00;6.10;;;3.20;;
31910;SDS011;18457;52.432;16.914;2022-09-09T11:53:50;4.30;;;2.50;;
31910;SDS011;18457;52.432;16.914;2022-09-09T11:56:27;2.80;;;2.30;;
31910;SDS011;18457;52.432;16.914;2022-09-09T11:59:02;3.60;;;2.30;;
31910;SDS011;18457;52.432;16.914;2022-09-09T12:01:36;7.20;;;3.80;;
31910;SDS011;18457;52.432;16.914;2022-09-09T12:04:15;11.20;;;3.00;;
31910;SDS011;18457;52.432;16.914;2022-09-09T12:07:02;3.50;;;2.20;;
31910;SDS011;18457;52.432;16.914;2022-09-09T12:09:50;4.40;;;2.20;;
31910;SDS011;18457;52.432;16.914;2022-09-09T12:12:28;3.80;;;2.20;;
31910;SDS011;18457;52.432;16.914;2022-09-09T12:15:03;3.00;;;2.30;;
31910;SDS011;18457;52.432;16.914;2022-09-09T12:17:53;3.70;;;2.60;;
31910;SDS011;18457;52.432;16.914;2022-09-09T12:20:35;6.90;;;2.10;;
31910;SDS011;18457;52.432;16.914;2022-09-09T12:23:13;3.80;;;2.20;;
31910;SDS011;18457;52.432;16.914;2022-09-09T12:26:03;4.70;;;2.20;;
31910;SDS011;18457;52.432;16.914;2022-09-09T12:28:49;4.60;;;2.50;;
31910;SDS011;18457;52.432;16.914;2022-09-09T12:31:28;4.70;;;2.40;;
31910;SDS011;18457;52.432;16.914;2022-09-09T12:34:10;7.80;;;2.40;;
31910;SDS011;18457;52.432;16.914;2022-09-09T12:36:46;6.30;;;2.80;;
31910;SDS011;18457;52.432;16.914;2022-09-09T12:39:27;4.00;;;1.90;;
31910;SDS011;18457;52.432;16.914;2022-09-09T12:42:03;3.30;;;2.30;;
31910;SDS011;18457;52.432;16.914;2022-09-09T12:44:51;5.80;;;2.40;;
31910;SDS011;18457;52.432;16.914;2022-09-09T12:50:16;4.40;;;2.60;;
31910;SDS011;18457;52.432;16.914;2022-09-09T12:52:52;1.70;;;1.60;;
31910;SDS011;18457;52.432;16.914;2022-09-09T12:55:28;3.90;;;2.10;;
31910;SDS011;18457;52.432;16.914;2022-09-09T12:58:03;2.80;;;2.10;;
31910;SDS011;18457;52.432;16.914;2022-09-09T13:00:36;9.30;;;2.50;;
31910;SDS011;18457;52.432;16.914;2022-09-09T13:03:20;6.40;;;3.30;;
31910;SDS011;18457;52.432;16.914;2022-09-09T13:05:53;5.90;;;2.40;;
31910;SDS011;18457;52.432;16.914;2022-09-09T13:08:29;4.90;;;2.50;;
31910;SDS011;18457;52.432;16.914;2022-09-09T13:11:03;6.40;;;2.30;;
31910;SDS011;18457;52.432;16.914;2022-09-09T13:13:39;6.70;;;2.50;;
31910;SDS011;18457;52.432;16.914;2022-09-09T13:16:22;3.80;;;2.50;;
31910;SDS011;18457;52.432;16.914;2022-09-09T13:19:01;12.10;;;2.60;;
31910;SDS011;18457;52.432;16.914;2022-09-09T13:21:38;2.10;;;1.90;;
31910;SDS011;18457;52.432;16.914;2022-09-09T13:24:23;5.10;;;2.00;;
31910;SDS011;18457;52.432;16.914;2022-09-09T13:26:59;6.50;;;3.20;;
31910;SDS011;18457;52.432;16.914;2022-09-09T13:29:32;4.10;;;2.30;;
31910;SDS011;18457;52.432;16.914;2022-09-09T13:32:06;3.80;;;1.80;;
31910;SDS011;18457;52.432;16.914;2022-09-09T13:34:51;6.60;;;1.90;;
31910;SDS011;18457;52.432;16.914;2022-09-09T13:37:26;6.00;;;1.90;;
31910;SDS011;18457;52.432;16.914;2022-09-09T13:40:03;5.50;;;1.90;;
31910;SDS011;18457;52.432;16.914;2022-09-09T13:42:39;4.20;;;2.30;;
31910;SDS011;18457;52.432;16.914;2022-09-09T13:45:16;2.90;;;2.10;;
31910;SDS011;18457;52.432;16.914;2022-09-09T13:47:50;4.00;;;2.40;;
31910;SDS011;18457;52.432;16.914;2022-09-09T13:50:24;5.00;;;2.20;;
31910;SDS011;18457;52.432;16.914;2022-09-09T13:52:58;3.90;;;2.20;;
31910;SDS011;18457;52.432;16.914;2022-09-09T13:55:30;9.40;;;2.10;;
31910;SDS011;18457;52.432;16.914;2022-09-09T13:58:02;3.20;;;1.90;;
31910;SDS011;18457;52.432;16.914;2022-09-09T14:00:34;3.90;;;2.30;;
31910;SDS011;18457;52.432;16.914;2022-09-09T14:03:06;6.20;;;1.90;;
31910;SDS011;18457;52.432;16.914;2022-09-09T14:05:38;6.90;;;2.00;;
31910;SDS011;18457;52.432;16.914;2022-09-09T14:08:13;2.10;;;1.70;;
31910;SDS011;18457;52.432;16.914;2022-09-09T14:10:50;3.30;;;2.10;;
31910;SDS011;18457;52.432;16.914;2022-09-09T14:13:27;3.60;;;1.90;;
31910;SDS011;18457;52.432;16.914;2022-09-09T14:15:58;2.00;;;1.70;;
31910;SDS011;18457;52.432;16.914;2022-09-09T14:18:30;4.40;;;2.20;;
31910;SDS011;18457;52.432;16.914;2022-09-09T14:21:02;4.80;;;2.40;;
31910;SDS011;18457;52.432;16.914;2022-09-09T14:23:37;4.30;;;1.80;;
31910;SDS011;18457;52.432;16.914;2022-09-09T14:26:09;3.40;;;1.70;;
31910;SDS011;18457;52.432;16.914;2022-09-09T14:28:42;2.30;;;1.50;;
31910;SDS011;18457;52.432;16.914;2022-09-09T14:31:24;2.10;;;1.70;;
31910;SDS011;18457;52.432;16.914;2022-09-09T14:33:56;4.30;;;2.00;;
31910;SDS011;18457;52.432;16.914;2022-09-09T14:36:28;3.30;;;2.20;;
31910;SDS011;18457;52.432;16.914;2022-09-09T14:39:00;7.00;;;2.20;;
31910;SDS011;18457;52.432;16.914;2022-09-09T14:44:03;3.60;;;2.00;;
31910;SDS011;18457;52.432;16.914;2022-09-09T14:46:34;3.20;;;2.00;;
31910;SDS011;18457;52.432;16.914;2022-09-09T14:49:06;5.70;;;2.60;;
31910;SDS011;18457;52.432;16.914;2022-09-09T14:51:39;5.90;;;2.20;;
31910;SDS011;18457;52.432;16.914;2022-09-09T14:54:11;7.10;;;1.90;;
31910;SDS011;18457;52.432;16.914;2022-09-09T14:56:43;4.60;;;1.80;;
31910;SDS011;18457;52.432;16.914;2022-09-09T15:01:46;4.00;;;2.10;;
31910;SDS011;18457;52.432;16.914;2022-09-09T15:04:18;4.50;;;2.00;;
31910;SDS011;18457;52.432;16.914;2022-09-09T15:06:50;3.30;;;1.80;;
31910;SDS011;18457;52.432;16.914;2022-09-09T15:09:22;2.90;;;2.20;;
31910;SDS011;18457;52.432;16.914;2022-09-09T15:11:54;9.30;;;2.70;;
31910;SDS011;18457;52.432;16.914;2022-09-09T15:14:26;3.40;;;2.20;;
31910;SDS011;18457;52.432;16.914;2022-09-09T15:16:59;5.50;;;2.90;;
31910;SDS011;18457;52.432;16.914;2022-09-09T15:19:31;4.20;;;3.00;;
31910;SDS011;18457;52.432;16.914;2022-09-09T15:22:03;5.00;;;2.00;;
31910;SDS011;18457;52.432;16.914;2022-09-09T15:24:36;3.30;;;2.50;;
31910;SDS011;18457;52.432;16.914;2022-09-09T15:27:07;3.90;;;2.20;;
31910;SDS011;18457;52.432;16.914;2022-09-09T15:29:39;4.30;;;2.30;;
31910;SDS011;18457;52.432;16.914;2022-09-09T15:32:13;6.80;;;2.00;;
31910;SDS011;18457;52.432;16.914;2022-09-09T15:34:45;4.10;;;1.90;;
31910;SDS011;18457;52.432;16.914;2022-09-09T15:37:20;6.10;;;2.00;;